sensor_id;sensor_type;location;lat;lon;timestamp;pressure;altitude;pressure_sealevel;temperature;humidity
1776;BME280;885;42.626;23.200;2023-02-20T00:00:19;81284.88;;;8.62;79.68
1776;BME280;885;42.626;23.200;2023-02-20T00:02:47;81155.34;;;8.45;80.39
1776;BME280;885;42.626;23.200;2023-02-20T00:05:14;81326.25;;;8.59;80.18
1776;BME280;885;42.626;23.200;2023-02-20T00:07:41;81535.09;;;8.76;79.98
1776;BME280;885;42.626;23.200;2023-02-20T00:10:08;81663.94;;;8.88;79.62
1776;BME280;885;42.626;23.200;2023-02-20T00:12:37;81743.44;;;8.93;80.39
1776;BME280;885;42.626;23.200;2023-02-20T00:15:05;81682.31;;;8.76;80.49
1776;BME280;885;42.626;23.200;2023-02-20T00:17:32;81448.97;;;8.38;82.25
1776;BME280;885;42.626;23.200;2023-02-20T00:19:59;81399.91;;;8.15;83.13
1776;BME280;885;42.626;23.200;2023-02-20T00:22:26;81672.88;;;8.34;82.59
1776;BME280;885;42.626;23.200;2023-02-20T00:24:53;81855.88;;;8.48;81.84
1776;BME280;885;42.626;23.200;2023-02-20T00:27:20;81867.66;;;8.44;82.63
1776;BME280;885;42.626;23.200;2023-02-20T00:29:48;81838.72;;;8.31;83.57
1776;BME280;885;42.626;23.200;2023-02-20T00:32:15;81815.63;;;8.22;84.54
1776;BME280;885;42.626;23.200;2023-02-20T00:34:42;82037.84;;;8.40;84.04
1776;BME280;885;42.626;23.200;2023-02-20T00:37:08;82071.59;;;8.42;83.17
1776;BME280;885;42.626;23.200;2023-02-20T00:39:35;81933.38;;;8.25;83.86
1776;BME280;885;42.626;23.200;2023-02-20T00:42:02;81991.91;;;8.27;83.91
1776;BME280;885;42.626;23.200;2023-02-20T00:44:29;81981.63;;;8.17;83.93
1776;BME280;885;42.626;23.200;2023-02-20T00:46:57;82036.66;;;8.18;83.82
1776;BME280;885;42.626;23.200;2023-02-20T00:49:23;82091.56;;;8.27;83.76
1776;BME280;885;42.626;23.200;2023-02-20T00:51:50;81906.53;;;8.04;83.74
1776;BME280;885;42.626;23.200;2023-02-20T00:54:17;81985.75;;;8.11;84.23
1776;BME280;885;42.626;23.200;2023-02-20T00:56:45;82029.72;;;8.17;83.23
1776;BME280;885;42.626;23.200;2023-02-20T00:59:12;81922.22;;;8.03;83.86
1776;BME280;885;42.626;23.200;2023-02-20T01:01:39;81796.91;;;7.85;84.74
1776;BME280;885;42.626;23.200;2023-02-20T01:04:07;81479.91;;;7.33;87.67
1776;BME280;885;42.626;23.200;2023-02-20T01:06:34;81969.75;;;7.68;86.43
1776;BME280;885;42.626;23.200;2023-02-20T01:09:01;82082.81;;;7.75;85.88
1776;BME280;885;42.626;23.200;2023-02-20T01:11:27;82495.78;;;8.01;85.99
1776;BME280;885;42.626;23.200;2023-02-20T01:13:54;82556.66;;;8.15;84.50
1776;BME280;885;42.626;23.200;2023-02-20T01:16:21;82645.56;;;8.25;83.74
1776;BME280;885;42.626;23.200;2023-02-20T01:18:49;82359.50;;;8.14;83.46
1776;BME280;885;42.626;23.200;2023-02-20T01:21:17;82537.91;;;8.12;84.39
1776;BME280;885;42.626;23.200;2023-02-20T01:23:44;82731.00;;;8.19;84.82
1776;BME280;885;42.626;23.200;2023-02-20T01:26:11;82738.34;;;8.00;86.57
1776;BME280;885;42.626;23.200;2023-02-20T01:28:38;82719.84;;;7.86;87.67
1776;BME280;885;42.626;23.200;2023-02-20T01:31:06;83243.06;;;8.27;85.49
1776;BME280;885;42.626;23.200;2023-02-20T01:33:32;83451.81;;;8.44;84.84
1776;BME280;885;42.626;23.200;2023-02-20T01:35:59;83469.59;;;8.34;86.51
1776;BME280;885;42.626;23.200;2023-02-20T01:38:27;83643.09;;;8.41;86.64
1776;BME280;885;42.626;23.200;2023-02-20T01:40:54;83856.28;;;8.48;86.55
1776;BME280;885;42.626;23.200;2023-02-20T01:43:21;84482.53;;;8.50;89.42
1776;BME280;885;42.626;23.200;2023-02-20T01:45:48;85662.25;;;8.31;94.01
1776;BME280;885;42.626;23.200;2023-02-20T01:48:19;90127.31;;;7.85;100.00
1776;BME280;885;42.626;23.200;2023-02-20T01:50:47;102472.16;;;7.71;100.00
1776;BME280;885;42.626;23.200;2023-02-20T01:53:19;118415.16;;;7.76;100.00
1776;BME280;885;42.626;23.200;2023-02-20T01:55:50;129765.22;;;7.85;100.00
1776;BME280;885;42.626;23.200;2023-02-20T01:58:22;128291.63;;;7.80;100.00
1776;BME280;885;42.626;23.200;2023-02-20T02:00:49;129000.47;;;7.69;100.00
1776;BME280;885;42.626;23.200;2023-02-20T02:03:18;134491.16;;;7.68;100.00
1776;BME280;885;42.626;23.200;2023-02-20T02:05:51;138869.09;;;7.59;100.00
1776;BME280;885;42.626;23.200;2023-02-20T02:08:20;142903.13;;;7.58;100.00
1776;BME280;885;42.626;23.200;2023-02-20T02:11:00;145100.44;;;7.55;100.00
1776;BME280;885;42.626;23.200;2023-02-20T02:13:27;139998.13;;;7.71;100.00
1776;BME280;885;42.626;23.200;2023-02-20T02:16:00;131560.78;;;7.68;98.37
1776;BME280;885;42.626;23.200;2023-02-20T02:18:38;130494.28;;;7.83;98.45
1776;BME280;885;42.626;23.200;2023-02-20T02:24:31;156799.66;;;7.28;100.00
1776;BME280;885;42.626;23.200;2023-02-20T02:27:33;158921.72;;;6.94;100.00
1776;BME280;885;42.626;23.200;2023-02-20T02:36:26;140619.41;;;7.22;98.72
1776;BME280;885;42.626;23.200;2023-02-20T02:39:02;142436.94;;;7.15;100.00
1776;BME280;885;42.626;23.200;2023-02-20T02:41:37;137680.09;;;7.19;97.61
1776;BME280;885;42.626;23.200;2023-02-20T02:44:10;131074.91;;;7.12;94.90
1776;BME280;885;42.626;23.200;2023-02-20T02:46:42;132206.91;;;7.28;96.08
1776;BME280;885;42.626;23.200;2023-02-20T02:49:18;128535.06;;;7.21;93.54
1776;BME280;885;42.626;23.200;2023-02-20T02:51:48;128554.94;;;7.31;94.42
1776;BME280;885;42.626;23.200;2023-02-20T02:54:18;133948.66;;;6.87;98.04
1776;BME280;885;42.626;23.200;2023-02-20T02:56:50;131778.59;;;6.99;96.69
1776;BME280;885;42.626;23.200;2023-02-20T02:59:20;135440.13;;;7.00;98.94
1776;BME280;885;42.626;23.200;2023-02-20T03:01:51;134679.44;;;6.87;97.75
1776;BME280;885;42.626;23.200;2023-02-20T03:04:19;134284.97;;;6.74;97.84
1776;BME280;885;42.626;23.200;2023-02-20T03:06:52;131066.31;;;7.08;95.75
1776;BME280;885;42.626;23.200;2023-02-20T03:09:25;127372.97;;;6.90;93.85
1776;BME280;885;42.626;23.200;2023-02-20T03:11:54;127383.34;;;6.95;94.20
1776;BME280;885;42.626;23.200;2023-02-20T03:14:25;123755.56;;;7.07;92.62
1776;BME280;885;42.626;23.200;2023-02-20T03:17:14;122271.53;;;6.95;92.08
1776;BME280;885;42.626;23.200;2023-02-20T03:19:46;123000.38;;;6.94;93.09
1776;BME280;885;42.626;23.200;2023-02-20T03:22:18;123023.38;;;7.06;93.53
1776;BME280;885;42.626;23.200;2023-02-20T03:24:47;122271.53;;;6.95;92.35
1776;BME280;885;42.626;23.200;2023-02-20T03:27:25;122278.47;;;6.98;92.56
1776;BME280;885;42.626;23.200;2023-02-20T03:29:57;121914.56;;;6.99;93.33
1776;BME280;885;42.626;23.200;2023-02-20T03:32:26;123685.09;;;6.72;94.13
1776;BME280;885;42.626;23.200;2023-02-20T03:35:12;121499.28;;;6.73;91.90
1776;BME280;885;42.626;23.200;2023-02-20T03:38:01;117150.84;;;6.87;90.87
1776;BME280;885;42.626;23.200;2023-02-20T03:40:47;117888.31;;;6.91;91.05
1776;BME280;885;42.626;23.200;2023-02-20T03:43:34;116432.50;;;6.92;89.72
1776;BME280;885;42.626;23.200;2023-02-20T03:46:04;117496.16;;;6.77;91.74
1776;BME280;885;42.626;23.200;2023-02-20T03:48:35;120004.66;;;6.55;94.58
1776;BME280;885;42.626;23.200;2023-02-20T03:51:06;121831.31;;;6.57;94.95
1776;BME280;885;42.626;23.200;2023-02-20T03:53:34;120751.31;;;6.64;93.80
1776;BME280;885;42.626;23.200;2023-02-20T03:56:04;119654.75;;;6.62;92.86
1776;BME280;885;42.626;23.200;2023-02-20T03:58:36;119269.94;;;6.52;93.53
1776;BME280;885;42.626;23.200;2023-02-20T04:01:07;121107.03;;;6.59;94.20
1776;BME280;885;42.626;23.200;2023-02-20T04:03:39;119622.69;;;6.46;93.26
1776;BME280;885;42.626;23.200;2023-02-20T04:06:09;118537.41;;;6.50;92.71
1776;BME280;885;42.626;23.200;2023-02-20T04:08:41;117824.22;;;6.58;92.48
1776;BME280;885;42.626;23.200;2023-02-20T04:11:12;116020.13;;;6.67;90.55
1776;BME280;885;42.626;23.200;2023-02-20T04:13:40;113491.91;;;6.78;89.05
1776;BME280;885;42.626;23.200;2023-02-20T04:16:08;113519.53;;;6.93;88.90
1776;BME280;885;42.626;23.200;2023-02-20T04:18:36;114988.34;;;6.99;90.72
1776;BME280;885;42.626;23.200;2023-02-20T04:21:07;116083.22;;;7.00;91.48
1776;BME280;885;42.626;23.200;2023-02-20T04:23:42;116444.78;;;6.99;91.73
1776;BME280;885;42.626;23.200;2023-02-20T04:26:13;114223.72;;;6.80;89.94
1776;BME280;885;42.626;23.200;2023-02-20T04:28:42;114254.28;;;6.96;90.14
1776;BME280;885;42.626;23.200;2023-02-20T04:31:09;113508.47;;;6.87;89.93
1776;BME280;885;42.626;23.200;2023-02-20T04:33:37;113148.09;;;6.89;90.09
1776;BME280;885;42.626;23.200;2023-02-20T04:36:04;114613.84;;;6.94;91.27
1776;BME280;885;42.626;23.200;2023-02-20T04:38:31;112385.44;;;6.70;90.63
1776;BME280;885;42.626;23.200;2023-02-20T04:40:59;113489.16;;;6.76;91.12
1776;BME280;885;42.626;23.200;2023-02-20T04:43:26;112402.72;;;6.79;89.56
1776;BME280;885;42.626;23.200;2023-02-20T04:45:52;112020.66;;;6.69;91.06
1776;BME280;885;42.626;23.200;2023-02-20T04:48:19;112734.72;;;6.62;91.76
1776;BME280;885;42.626;23.200;2023-02-20T04:50:46;110543.19;;;6.57;89.82
1776;BME280;885;42.626;23.200;2023-02-20T04:53:13;107918.84;;;6.58;87.82
1776;BME280;885;42.626;23.200;2023-02-20T04:55:40;109443.56;;;6.52;90.11
1776;BME280;885;42.626;23.200;2023-02-20T04:58:08;111245.28;;;6.43;92.25
1776;BME280;885;42.626;23.200;2023-02-20T05:00:34;112721.91;;;6.55;91.83
1776;BME280;885;42.626;23.200;2023-02-20T05:03:01;109404.25;;;6.32;89.69
1776;BME280;885;42.626;23.200;2023-02-20T05:05:28;106212.81;;;6.31;87.44
1776;BME280;885;42.626;23.200;2023-02-20T05:07:56;107904.47;;;6.47;89.16
1776;BME280;885;42.626;23.200;2023-02-20T05:10:23;108618.50;;;6.43;89.67
1776;BME280;885;42.626;23.200;2023-02-20T05:12:51;109432.94;;;6.46;90.10
1776;BME280;885;42.626;23.200;2023-02-20T05:15:20;108328.66;;;6.37;89.36
1776;BME280;885;42.626;23.200;2023-02-20T05:17:47;105695.00;;;6.14;89.51
1776;BME280;885;42.626;23.200;2023-02-20T05:20:15;103729.53;;;6.18;87.35
1776;BME280;885;42.626;23.200;2023-02-20T05:22:44;104196.06;;;6.19;87.68
1776;BME280;885;42.626;23.200;2023-02-20T05:25:10;102801.47;;;6.16;87.06
1776;BME280;885;42.626;23.200;2023-02-20T05:27:37;100927.16;;;6.01;86.72
1776;BME280;885;42.626;23.200;2023-02-20T05:30:06;102057.97;;;6.17;86.72
1776;BME280;885;42.626;23.200;2023-02-20T05:32:34;100931.63;;;6.05;86.69
1776;BME280;885;42.626;23.200;2023-02-20T05:35:01;100629.88;;;6.01;86.92
1776;BME280;885;42.626;23.200;2023-02-20T05:37:28;100878.38;;;5.81;88.77
1776;BME280;885;42.626;23.200;2023-02-20T05:39:54;101519.56;;;5.91;88.60
1776;BME280;885;42.626;23.200;2023-02-20T05:42:21;102088.38;;;6.04;88.72
1776;BME280;885;42.626;23.200;2023-02-20T05:44:48;104038.59;;;6.13;90.07
1776;BME280;885;42.626;23.200;2023-02-20T05:47:15;106050.00;;;6.11;91.74
1776;BME280;885;42.626;23.200;2023-02-20T05:49:43;103543.00;;;5.98;89.65
1776;BME280;885;42.626;23.200;2023-02-20T05:52:11;103443.97;;;5.93;89.72
1776;BME280;885;42.626;23.200;2023-02-20T05:54:39;104245.72;;;5.98;90.53
1776;BME280;885;42.626;23.200;2023-02-20T05:57:07;104734.47;;;6.11;89.84
1776;BME280;885;42.626;23.200;2023-02-20T05:59:34;106126.50;;;6.27;90.21
1776;BME280;885;42.626;23.200;2023-02-20T06:02:00;106462.13;;;6.45;89.32
1776;BME280;885;42.626;23.200;2023-02-20T06:04:28;105283.34;;;6.47;88.06
1776;BME280;885;42.626;23.200;2023-02-20T06:06:56;103869.31;;;6.41;87.48
1776;BME280;885;42.626;23.200;2023-02-20T06:09:23;103677.00;;;6.43;87.50
1776;BME280;885;42.626;23.200;2023-02-20T06:11:51;104479.81;;;6.65;86.63
1776;BME280;885;42.626;23.200;2023-02-20T06:14:19;104921.47;;;6.75;87.35
1776;BME280;885;42.626;23.200;2023-02-20T06:16:47;103959.38;;;6.71;86.81
1776;BME280;885;42.626;23.200;2023-02-20T06:19:17;102789.16;;;6.62;86.32
1776;BME280;885;42.626;23.200;2023-02-20T06:21:47;103626.78;;;6.66;87.41
1776;BME280;885;42.626;23.200;2023-02-20T06:24:15;102952.13;;;6.56;87.05
1776;BME280;885;42.626;23.200;2023-02-20T06:26:43;103308.63;;;6.64;86.72
1776;BME280;885;42.626;23.200;2023-02-20T06:29:12;103297.59;;;6.71;86.39
1776;BME280;885;42.626;23.200;2023-02-20T06:31:39;103193.97;;;6.82;85.48
1776;BME280;885;42.626;23.200;2023-02-20T06:34:06;103506.22;;;6.94;85.47
1776;BME280;885;42.626;23.200;2023-02-20T06:36:34;101562.81;;;6.68;84.93
1776;BME280;885;42.626;23.200;2023-02-20T06:39:03;99775.09;;;6.65;83.60
1776;BME280;885;42.626;23.200;2023-02-20T06:41:31;99078.28;;;6.54;84.23
1776;BME280;885;42.626;23.200;2023-02-20T06:43:58;99214.94;;;6.62;83.75
1776;BME280;885;42.626;23.200;2023-02-20T06:46:25;98857.28;;;6.58;83.86
1776;BME280;885;42.626;23.200;2023-02-20T06:48:54;99275.66;;;6.61;84.22
1776;BME280;885;42.626;23.200;2023-02-20T06:51:24;98131.41;;;6.45;83.91
1776;BME280;885;42.626;23.200;2023-02-20T06:53:51;98425.34;;;6.50;84.45
1776;BME280;885;42.626;23.200;2023-02-20T06:56:19;98127.31;;;6.46;84.38
1776;BME280;885;42.626;23.200;2023-02-20T06:58:49;97450.97;;;6.38;84.40
1776;BME280;885;42.626;23.200;2023-02-20T07:01:18;97693.50;;;6.60;82.43
1776;BME280;885;42.626;23.200;2023-02-20T07:03:45;97351.47;;;6.55;82.96
1776;BME280;885;42.626;23.200;2023-02-20T07:06:13;97474.94;;;6.61;82.32
1776;BME280;885;42.626;23.200;2023-02-20T07:08:40;96055.31;;;6.42;82.40
1776;BME280;885;42.626;23.200;2023-02-20T07:11:07;96484.28;;;6.49;82.89
1776;BME280;885;42.626;23.200;2023-02-20T07:13:34;96422.38;;;6.62;82.01
1776;BME280;885;42.626;23.200;2023-02-20T07:16:02;95733.38;;;6.76;79.32
1776;BME280;885;42.626;23.200;2023-02-20T07:18:29;95863.63;;;6.76;80.19
1776;BME280;885;42.626;23.200;2023-02-20T07:20:56;95819.84;;;6.82;79.69
1776;BME280;885;42.626;23.200;2023-02-20T07:23:23;94920.41;;;6.72;79.47
1776;BME280;885;42.626;23.200;2023-02-20T07:25:50;95165.97;;;6.84;78.97
1776;BME280;885;42.626;23.200;2023-02-20T07:28:18;93891.66;;;6.95;75.10
1776;BME280;885;42.626;23.200;2023-02-20T07:30:46;93369.41;;;7.21;73.30
1776;BME280;885;42.626;23.200;2023-02-20T07:33:15;93187.81;;;7.34;72.20
1776;BME280;885;42.626;23.200;2023-02-20T07:35:42;93445.94;;;7.55;71.87
1776;BME280;885;42.626;23.200;2023-02-20T07:38:10;92774.75;;;7.40;73.00
1776;BME280;885;42.626;23.200;2023-02-20T07:40:36;92947.13;;;7.53;72.09
1776;BME280;885;42.626;23.200;2023-02-20T07:43:03;91831.56;;;7.50;70.71
1776;BME280;885;42.626;23.200;2023-02-20T07:45:30;91777.34;;;7.55;70.60
1776;BME280;885;42.626;23.200;2023-02-20T07:47:57;93345.75;;;8.04;70.57
1776;BME280;885;42.626;23.200;2023-02-20T07:50:26;94252.34;;;8.69;67.08
1776;BME280;885;42.626;23.200;2023-02-20T07:52:53;95971.78;;;9.57;63.58
1776;BME280;885;42.626;23.200;2023-02-20T07:55:20;95451.28;;;10.44;57.27
1776;BME280;885;42.626;23.200;2023-02-20T07:57:48;97995.00;;;12.02;53.36
1776;BME280;885;42.626;23.200;2023-02-20T08:00:17;104683.03;;;14.37;49.62
1776;BME280;885;42.626;23.200;2023-02-20T08:02:45;100565.09;;;15.44;43.26
1776;BME280;885;42.626;23.200;2023-02-20T08:05:12;105832.53;;;17.13;42.01
1776;BME280;885;42.626;23.200;2023-02-20T08:07:44;107002.31;;;18.56;37.51
1776;BME280;885;42.626;23.200;2023-02-20T08:10:12;98163.97;;;17.26;37.98
1776;BME280;885;42.626;23.200;2023-02-20T08:12:39;94301.56;;;16.32;39.01
1776;BME280;885;42.626;23.200;2023-02-20T08:15:06;90248.88;;;14.73;41.95
1776;BME280;885;42.626;23.200;2023-02-20T08:17:34;90275.34;;;14.65;43.15
1776;BME280;885;42.626;23.200;2023-02-20T08:20:01;86056.91;;;12.48;48.14
1776;BME280;885;42.626;23.200;2023-02-20T08:22:29;82861.66;;;10.15;53.80
1776;BME280;885;42.626;23.200;2023-02-20T08:24:57;83332.84;;;10.30;54.45
1776;BME280;885;42.626;23.200;2023-02-20T08:27:24;84607.19;;;11.08;53.92
1776;BME280;885;42.626;23.200;2023-02-20T08:29:51;85199.28;;;11.66;51.08
1776;BME280;885;42.626;23.200;2023-02-20T08:32:20;84835.78;;;11.54;50.69
1776;BME280;885;42.626;23.200;2023-02-20T08:34:46;83465.75;;;10.60;51.71
1776;BME280;885;42.626;23.200;2023-02-20T08:37:13;83490.31;;;10.64;51.83
1776;BME280;885;42.626;23.200;2023-02-20T08:39:40;83175.28;;;10.38;52.25
1776;BME280;885;42.626;23.200;2023-02-20T08:42:08;83419.47;;;10.38;54.79
1776;BME280;885;42.626;23.200;2023-02-20T08:44:35;83127.00;;;10.23;53.93
1776;BME280;885;42.626;23.200;2023-02-20T08:47:02;83739.44;;;10.74;52.47
1776;BME280;885;42.626;23.200;2023-02-20T08:49:29;82857.28;;;10.16;52.68
1776;BME280;885;42.626;23.200;2023-02-20T08:51:56;83421.75;;;10.44;54.42
1776;BME280;885;42.626;23.200;2023-02-20T08:54:22;83936.47;;;10.79;54.15
1776;BME280;885;42.626;23.200;2023-02-20T08:56:49;83703.66;;;10.77;52.45
1776;BME280;885;42.626;23.200;2023-02-20T08:59:17;82559.09;;;9.84;55.45
1776;BME280;885;42.626;23.200;2023-02-20T09:01:44;82783.50;;;9.95;55.80
1776;BME280;885;42.626;23.200;2023-02-20T09:04:11;82856.09;;;10.07;54.52
1776;BME280;885;42.626;23.200;2023-02-20T09:06:38;82408.22;;;9.61;55.44
1776;BME280;885;42.626;23.200;2023-02-20T09:09:05;82700.50;;;9.88;55.29
1776;BME280;885;42.626;23.200;2023-02-20T09:11:31;82667.38;;;9.93;55.24
1776;BME280;885;42.626;23.200;2023-02-20T09:13:58;83149.16;;;10.14;56.55
1776;BME280;885;42.626;23.200;2023-02-20T09:16:26;83254.47;;;10.18;56.17
1776;BME280;885;42.626;23.200;2023-02-20T09:18:53;83549.66;;;10.59;53.58
1776;BME280;885;42.626;23.200;2023-02-20T09:21:21;83977.78;;;10.86;53.86
1776;BME280;885;42.626;23.200;2023-02-20T09:23:48;84004.19;;;10.93;53.28
1776;BME280;885;42.626;23.200;2023-02-20T09:26:14;82851.34;;;10.12;54.02
1776;BME280;885;42.626;23.200;2023-02-20T09:28:41;83838.22;;;10.73;54.89
1776;BME280;885;42.626;23.200;2023-02-20T09:31:09;83783.19;;;10.85;51.81
1776;BME280;885;42.626;23.200;2023-02-20T09:33:37;82873.66;;;10.16;54.19
1776;BME280;885;42.626;23.200;2023-02-20T09:36:05;83507.22;;;10.57;53.29
1776;BME280;885;42.626;23.200;2023-02-20T09:38:32;83476.38;;;10.68;52.28
1776;BME280;885;42.626;23.200;2023-02-20T09:40:59;84404.22;;;11.23;52.45
1776;BME280;885;42.626;23.200;2023-02-20T09:43:38;84716.97;;;11.44;52.29
1776;BME280;885;42.626;23.200;2023-02-20T09:46:13;85315.13;;;11.80;52.07
1776;BME280;885;42.626;23.200;2023-02-20T09:49:08;84410.38;;;11.44;50.22
1776;BME280;885;42.626;23.200;2023-02-20T09:51:40;83600.53;;;10.78;52.01
1776;BME280;885;42.626;23.200;2023-02-20T09:54:11;83909.22;;;11.07;51.50
1776;BME280;885;42.626;23.200;2023-02-20T09:56:42;84311.47;;;11.45;49.77
1776;BME280;885;42.626;23.200;2023-02-20T09:59:14;83794.13;;;11.24;48.46
1776;BME280;885;42.626;23.200;2023-02-20T10:01:52;84841.38;;;11.85;48.91
1776;BME280;885;42.626;23.200;2023-02-20T10:04:26;84971.81;;;12.23;45.19
1776;BME280;885;42.626;23.200;2023-02-20T10:07:00;84002.84;;;11.69;45.41
1776;BME280;885;42.626;23.200;2023-02-20T10:09:32;84227.22;;;11.84;45.64
1776;BME280;885;42.626;23.200;2023-02-20T10:12:08;85077.00;;;12.27;46.45
1776;BME280;885;42.626;23.200;2023-02-20T10:14:51;85823.63;;;12.88;43.94
1776;BME280;885;42.626;23.200;2023-02-20T10:17:29;85857.50;;;12.94;43.48
1776;BME280;885;42.626;23.200;2023-02-20T10:20:02;84753.34;;;12.49;42.50
1776;BME280;885;42.626;23.200;2023-02-20T10:22:38;84905.16;;;12.58;42.24
1776;BME280;885;42.626;23.200;2023-02-20T10:25:13;84857.44;;;12.67;41.85
1776;BME280;885;42.626;23.200;2023-02-20T10:27:51;85488.72;;;13.17;40.08
1776;BME280;885;42.626;23.200;2023-02-20T10:30:23;85778.56;;;13.37;40.70
1776;BME280;885;42.626;23.200;2023-02-20T10:32:55;86104.28;;;13.58;40.16
1776;BME280;885;42.626;23.200;2023-02-20T10:35:31;85993.00;;;13.56;39.85
1776;BME280;885;42.626;23.200;2023-02-20T10:38:04;86193.88;;;13.65;40.26
1776;BME280;885;42.626;23.200;2023-02-20T10:40:36;84466.38;;;12.73;40.17
1776;BME280;885;42.626;23.200;2023-02-20T10:43:10;84113.28;;;12.35;42.11
1776;BME280;885;42.626;23.200;2023-02-20T10:45:46;83596.09;;;12.06;42.08
1776;BME280;885;42.626;23.200;2023-02-20T10:48:14;84509.44;;;12.61;42.46
1776;BME280;885;42.626;23.200;2023-02-20T10:50:47;84219.88;;;12.55;40.92
1776;BME280;885;42.626;23.200;2023-02-20T10:53:21;84758.91;;;12.79;41.96
1776;BME280;885;42.626;23.200;2023-02-20T10:55:55;85152.53;;;13.09;41.24
1776;BME280;885;42.626;23.200;2023-02-20T10:58:28;85468.19;;;13.14;42.96
1776;BME280;885;42.626;23.200;2023-02-20T11:00:59;84953.47;;;12.90;42.65
1776;BME280;885;42.626;23.200;2023-02-20T11:03:30;85612.03;;;13.30;42.17
1776;BME280;885;42.626;23.200;2023-02-20T11:06:02;85891.63;;;13.44;42.72
1776;BME280;885;42.626;23.200;2023-02-20T11:08:31;86435.88;;;13.67;43.03
1776;BME280;885;42.626;23.200;2023-02-20T11:11:20;85291.13;;;13.06;43.29
1776;BME280;885;42.626;23.200;2023-02-20T11:13:48;85889.59;;;13.30;44.03
1776;BME280;885;42.626;23.200;2023-02-20T11:16:21;86137.53;;;13.51;43.38
1776;BME280;885;42.626;23.200;2023-02-20T11:18:52;86424.56;;;13.65;43.33
1776;BME280;885;42.626;23.200;2023-02-20T11:21:36;87227.78;;;14.08;42.92
1776;BME280;885;42.626;23.200;2023-02-20T11:24:26;88146.28;;;14.68;40.75
1776;BME280;885;42.626;23.200;2023-02-20T11:26:59;88046.00;;;14.72;40.50
1776;BME280;885;42.626;23.200;2023-02-20T11:29:33;88099.38;;;14.82;40.26
1776;BME280;885;42.626;23.200;2023-02-20T11:32:21;86958.38;;;14.22;40.45
1776;BME280;885;42.626;23.200;2023-02-20T11:35:02;87698.47;;;14.63;40.01
1776;BME280;885;42.626;23.200;2023-02-20T11:37:31;87041.00;;;14.30;40.78
1776;BME280;885;42.626;23.200;2023-02-20T11:39:58;88715.66;;;14.88;42.74
1776;BME280;885;42.626;23.200;2023-02-20T11:42:31;88521.78;;;15.11;39.33
1776;BME280;885;42.626;23.200;2023-02-20T11:45:12;88244.34;;;14.95;40.14
1776;BME280;885;42.626;23.200;2023-02-20T11:47:39;87381.09;;;14.55;40.48
1776;BME280;885;42.626;23.200;2023-02-20T11:50:15;88491.09;;;15.08;40.38
1776;BME280;885;42.626;23.200;2023-02-20T11:52:57;89313.63;;;15.51;39.70
1776;BME280;885;42.626;23.200;2023-02-20T11:55:25;87792.81;;;14.88;39.15
1776;BME280;885;42.626;23.200;2023-02-20T11:57:53;88634.06;;;15.20;39.84
1776;BME280;885;42.626;23.200;2023-02-20T12:00:22;87135.53;;;14.60;39.54
1776;BME280;885;42.626;23.200;2023-02-20T12:02:53;86316.09;;;14.15;40.23
1776;BME280;885;42.626;23.200;2023-02-20T12:05:20;87400.50;;;14.71;39.78
1776;BME280;885;42.626;23.200;2023-02-20T12:07:57;86502.97;;;14.37;38.92
1776;BME280;885;42.626;23.200;2023-02-20T12:10:30;86906.09;;;14.55;39.33
1776;BME280;885;42.626;23.200;2023-02-20T12:13:01;87654.91;;;15.00;38.56
1776;BME280;885;42.626;23.200;2023-02-20T12:15:28;87165.59;;;14.75;39.07
1776;BME280;885;42.626;23.200;2023-02-20T12:18:25;86425.84;;;14.35;39.45
1776;BME280;885;42.626;23.200;2023-02-20T12:21:09;85332.44;;;13.79;39.72
1776;BME280;885;42.626;23.200;2023-02-20T12:23:47;86457.19;;;14.37;40.11
1776;BME280;885;42.626;23.200;2023-02-20T12:26:29;87297.53;;;14.86;39.38
1776;BME280;885;42.626;23.200;2023-02-20T12:29:05;88270.34;;;15.39;38.68
1776;BME280;885;42.626;23.200;2023-02-20T12:31:46;88153.31;;;15.47;37.16
1776;BME280;885;42.626;23.200;2023-02-20T12:34:25;86526.78;;;14.46;39.79
1776;BME280;885;42.626;23.200;2023-02-20T12:37:02;86886.09;;;14.70;39.53
1776;BME280;885;42.626;23.200;2023-02-20T12:39:44;87940.53;;;15.24;39.14
1776;BME280;885;42.626;23.200;2023-02-20T12:42:24;90077.06;;;16.36;37.20
1776;BME280;885;42.626;23.200;2023-02-20T12:45:13;91628.31;;;17.07;36.42
1776;BME280;885;42.626;23.200;2023-02-20T12:47:43;92910.75;;;17.64;35.20
1776;BME280;885;42.626;23.200;2023-02-20T12:53:25;89368.53;;;16.30;36.00
1776;BME280;885;42.626;23.200;2023-02-20T12:56:04;88585.13;;;15.89;37.16
1776;BME280;885;42.626;23.200;2023-02-20T12:58:42;89857.28;;;16.53;36.17
1776;BME280;885;42.626;23.200;2023-02-20T13:01:14;88238.50;;;15.73;37.25
1776;BME280;885;42.626;23.200;2023-02-20T13:03:48;91158.00;;;17.02;36.32
1776;BME280;885;42.626;23.200;2023-02-20T13:06:26;92324.47;;;17.55;35.70
1776;BME280;885;42.626;23.200;2023-02-20T13:09:04;93793.34;;;18.15;35.08
1776;BME280;885;42.626;23.200;2023-02-20T13:11:36;93322.91;;;18.03;34.86
1776;BME280;885;42.626;23.200;2023-02-20T13:14:16;92719.97;;;17.85;35.03
1776;BME280;885;42.626;23.200;2023-02-20T13:16:49;91366.25;;;17.35;35.96
1776;BME280;885;42.626;23.200;2023-02-20T13:19:24;92167.97;;;17.70;35.11
1776;BME280;885;42.626;23.200;2023-02-20T13:21:53;91696.72;;;17.46;35.79
1776;BME280;885;42.626;23.200;2023-02-20T13:24:32;91111.47;;;17.24;36.46
1776;BME280;885;42.626;23.200;2023-02-20T13:27:02;86955.69;;;15.25;38.02
1776;BME280;885;42.626;23.200;2023-02-20T13:29:33;88431.44;;;15.97;38.07
1776;BME280;885;42.626;23.200;2023-02-20T13:32:02;88016.66;;;15.83;38.10
1776;BME280;885;42.626;23.200;2023-02-20T13:34:32;89282.91;;;16.45;37.09
1776;BME280;885;42.626;23.200;2023-02-20T13:37:00;91550.72;;;17.51;35.79
1776;BME280;885;42.626;23.200;2023-02-20T13:39:40;91699.97;;;17.67;35.19
1776;BME280;885;42.626;23.200;2023-02-20T13:42:32;92620.75;;;18.11;34.25
1776;BME280;885;42.626;23.200;2023-02-20T13:45:00;95682.19;;;19.07;34.49
1776;BME280;885;42.626;23.200;2023-02-20T13:47:35;94562.13;;;18.91;33.35
1776;BME280;885;42.626;23.200;2023-02-20T13:50:26;95256.31;;;19.19;33.13
1776;BME280;885;42.626;23.200;2023-02-20T13:52:53;94767.78;;;19.01;33.44
1776;BME280;885;42.626;23.200;2023-02-20T13:55:22;95643.63;;;19.31;33.43